Time;durP1;ratioP1;P1;durP2;ratioP2;P2;SDS_P1;SDS_P2;PMS_P1;PMS_P2;Temp;Humidity;BMP_temperature;BMP_pressure;BME280_temperature;BME280_humidity;BME280_pressure;Samples;Min_cycle;Max_cycle;Signal;HPM_P1;HPM_P2
2023/05/01 00:01:13;;;;;;;5.07;3.40;;;;;;;14.53;59.67;101653.00;5113250;27;20024;-90
2023/05/01 00:03:39;;;;;;;4.95;3.03;;;;;;;14.34;59.10;101624.56;5107855;27;20034;-90
2023/05/01 00:06:04;;;;;;;3.30;3.00;;;;;;;14.39;58.67;101630.56;5104881;28;20028;-90
2023/05/01 00:08:30;;;;;;;5.90;3.38;;;;;;;14.36;59.04;101626.25;5106746;27;20055;-89
2023/05/01 00:10:56;;;;;;;6.30;3.45;;;;;;;14.39;59.08;101619.91;5106186;27;20034;-90
2023/05/01 00:13:23;;;;;;;5.82;3.22;;;;;;;14.43;58.12;101619.72;5109294;28;20028;-89
2023/05/01 00:15:48;;;;;;;4.65;3.35;;;;;;;14.51;58.61;101627.41;5109204;27;20031;-90
2023/05/01 00:18:14;;;;;;;4.13;3.28;;;;;;;14.48;57.87;101614.22;5108749;27;20019;-89
2023/05/01 00:20:39;;;;;;;3.70;2.90;;;;;;;14.53;57.72;101628.19;5098623;27;20019;-89
2023/05/01 00:23:05;;;;;;;5.43;3.13;;;;;;;14.47;57.78;101623.13;5106905;28;20051;-89
2023/05/01 00:25:31;;;;;;;5.57;3.25;;;;;;;14.35;58.04;101607.69;5100108;28;20024;-91
2023/05/01 00:27:58;;;;;;;6.82;3.60;;;;;;;14.25;58.58;101593.91;5105658;27;20034;-90
2023/05/01 00:30:24;;;;;;;6.65;3.03;;;;;;;14.36;58.31;101612.94;5103623;27;20024;-89
2023/05/01 00:32:49;;;;;;;5.00;3.33;;;;;;;14.32;58.30;101600.72;5099156;27;20513;-89
2023/05/01 00:35:15;;;;;;;7.32;3.50;;;;;;;14.41;58.14;101615.38;5103122;28;20038;-89
2023/05/01 00:37:41;;;;;;;5.90;3.30;;;;;;;14.29;57.80;101599.03;5101416;27;20550;-89
2023/05/01 00:40:07;;;;;;;4.63;2.90;;;;;;;14.39;58.40;101609.28;5109047;27;20092;-90
2023/05/01 00:42:38;;;;;;;4.85;3.40;;;;;;;14.27;58.48;101608.03;5103698;27;20027;-89
2023/05/01 00:45:05;;;;;;;4.45;3.20;;;;;;;14.13;58.78;101590.00;5104583;27;20019;-89
2023/05/01 00:47:31;;;;;;;4.38;3.50;;;;;;;14.08;59.48;101584.00;5107368;28;20106;-89
2023/05/01 00:49:58;;;;;;;5.43;3.00;;;;;;;14.07;58.98;101578.75;5109947;27;20095;-89
2023/05/01 00:52:24;;;;;;;6.03;3.20;;;;;;;14.10;59.44;101592.78;5105193;27;20589;-89
2023/05/01 00:54:51;;;;;;;5.65;3.20;;;;;;;14.00;59.52;101564.88;5105008;28;20091;-89
2023/05/01 00:57:18;;;;;;;3.92;2.95;;;;;;;13.96;59.93;101579.22;5100091;27;20023;-90
2023/05/01 00:59:44;;;;;;;7.47;3.53;;;;;;;13.91;61.43;101573.22;5104050;28;20307;-89
2023/05/01 01:02:11;;;;;;;5.18;3.70;;;;;;;14.01;59.86;101564.78;5102623;28;20467;-90
2023/05/01 01:04:36;;;;;;;4.72;3.60;;;;;;;13.84;60.19;101563.78;5109925;27;20467;-90
2023/05/01 01:07:23;;;;;;;4.03;3.70;;;;;;;13.87;59.64;101568.97;5110869;28;20072;-90
2023/05/01 01:10:29;;;;;;;6.78;3.55;;;;;;;13.83;59.10;101562.06;5099627;28;20046;-90
2023/05/01 01:13:13;;;;;;;4.82;3.70;;;;;;;13.77;59.51;101569.34;5100935;28;20170;-90
2023/05/01 01:15:46;;;;;;;6.10;3.78;;;;;;;13.68;60.92;101574.19;5108002;28;20031;-89
2023/05/01 01:18:35;;;;;;;5.20;3.45;;;;;;;13.72;60.07;101560.72;5107630;28;20104;-90
2023/05/01 01:21:12;;;;;;;7.43;3.92;;;;;;;13.70;60.17;101559.91;5104961;27;20024;-89
2023/05/01 01:23:40;;;;;;;3.78;3.30;;;;;;;13.72;60.51;101565.16;5110412;28;20051;-89
2023/05/01 01:26:12;;;;;;;5.32;3.50;;;;;;;13.67;60.36;101552.06;5108201;28;20035;-90
2023/05/01 01:29:01;;;;;;;5.43;3.28;;;;;;;13.69;60.33;101547.53;5106813;28;21612;-90
2023/05/01 01:31:49;;;;;;;5.25;3.25;;;;;;;13.73;60.97;101553.59;5103890;28;20042;-89
2023/05/01 01:34:22;;;;;;;5.60;3.58;;;;;;;13.62;61.79;101537.25;5112673;27;20024;-90
2023/05/01 01:37:02;;;;;;;5.22;3.30;;;;;;;13.60;62.56;101533.78;5098321;28;20119;-89
2023/05/01 01:39:46;;;;;;;4.70;3.40;;;;;;;13.56;62.22;101530.38;5105929;28;20510;-90
2023/05/01 01:42:19;;;;;;;5.32;3.50;;;;;;;13.51;62.92;101535.88;5099924;28;20038;-90
2023/05/01 01:44:54;;;;;;;4.70;3.30;;;;;;;13.60;62.53;101523.16;5107242;27;20396;-89
2023/05/01 01:47:24;;;;;;;5.47;3.45;;;;;;;13.53;61.65;101511.94;5121292;27;20118;-90
2023/05/01 01:49:52;;;;;;;5.78;3.22;;;;;;;13.59;61.82;101516.97;5103577;28;20031;-89
2023/05/01 01:52:19;;;;;;;5.07;2.97;;;;;;;13.46;61.52;101491.84;5108316;28;20031;-89
2023/05/01 01:54:53;;;;;;;4.45;3.33;;;;;;;13.46;61.35;101507.78;5108188;28;20130;-89
2023/05/01 01:57:21;;;;;;;7.15;3.70;;;;;;;13.47;61.42;101513.03;5096124;28;20547;-90
2023/05/01 01:59:48;;;;;;;8.90;3.58;;;;;;;13.39;61.56;101501.88;5101713;28;20498;-89
2023/05/01 02:02:17;;;;;;;6.28;3.65;;;;;;;13.41;61.59;101488.53;5119758;27;20019;-89
2023/05/01 02:04:43;;;;;;;5.20;3.83;;;;;;;13.40;62.05;101490.31;5097554;28;20028;-89
2023/05/01 02:07:10;;;;;;;5.40;3.40;;;;;;;13.36;61.60;101493.16;5107193;28;20091;-89
2023/05/01 02:09:37;;;;;;;8.20;3.70;;;;;;;13.41;61.87;101497.34;5103732;28;20032;-90
2023/05/01 02:12:05;;;;;;;6.32;4.07;;;;;;;13.34;61.79;101493.25;5105475;28;20697;-89
2023/05/01 02:14:32;;;;;;;5.00;3.60;;;;;;;13.32;61.98;101484.44;5100702;28;20027;-89
2023/05/01 02:16:58;;;;;;;7.78;4.28;;;;;;;13.27;62.89;101482.00;5106667;28;20501;-89
2023/05/01 02:19:25;;;;;;;4.90;3.85;;;;;;;13.26;63.08;101492.69;5106036;28;20023;-90
2023/05/01 02:21:53;;;;;;;7.93;4.15;;;;;;;13.05;63.54;101478.44;5108872;28;20023;-90
2023/05/01 02:24:21;;;;;;;5.72;3.53;;;;;;;13.12;63.23;101489.69;5103816;28;20058;-90
2023/05/01 02:26:50;;;;;;;5.65;3.95;;;;;;;13.17;63.21;101499.19;5101403;28;20032;-90
2023/05/01 02:29:16;;;;;;;4.75;3.70;;;;;;;13.25;62.66;101483.84;5102961;28;20439;-89
2023/05/01 02:31:41;;;;;;;5.85;3.95;;;;;;;13.32;62.02;101472.97;5106482;28;20110;-90
2023/05/01 02:34:06;;;;;;;7.45;3.80;;;;;;;13.28;62.68;101469.56;5103645;28;20165;-89
2023/05/01 02:36:32;;;;;;;7.50;3.88;;;;;;;13.28;62.88;101466.91;5105252;28;20027;-90
2023/05/01 02:38:58;;;;;;;6.35;3.78;;;;;;;13.20;62.07;101464.56;5104195;28;20035;-89
2023/05/01 02:41:26;;;;;;;8.45;3.90;;;;;;;13.21;62.09;101457.47;5106724;28;20069;-89
2023/05/01 02:43:57;;;;;;;5.43;3.80;;;;;;;13.21;61.79;101458.31;5097278;28;20095;-91
2023/05/01 02:46:24;;;;;;;4.53;3.50;;;;;;;13.20;62.13;101458.41;5105738;28;20031;-90
2023/05/01 02:48:50;;;;;;;5.20;3.40;;;;;;;13.19;62.47;101448.66;5104846;28;20030;-89
2023/05/01 02:51:17;;;;;;;5.88;3.58;;;;;;;13.22;62.13;101449.44;5110918;28;20039;-90
2023/05/01 02:53:42;;;;;;;4.82;3.67;;;;;;;13.22;62.09;101443.28;5108646;27;20028;-90
2023/05/01 02:56:08;;;;;;;5.50;3.85;;;;;;;13.18;62.10;101431.88;5099494;28;20035;-90
2023/05/01 02:58:33;;;;;;;6.68;4.05;;;;;;;13.20;62.01;101435.34;5105072;27;20033;-89
2023/05/01 03:00:59;;;;;;;6.47;4.28;;;;;;;13.08;63.02;101433.19;5128767;27;20059;-89
2023/05/01 03:03:25;;;;;;;5.20;3.78;;;;;;;13.11;61.86;101430.44;5098723;28;20348;-89
2023/05/01 03:05:51;;;;;;;5.63;4.07;;;;;;;13.08;63.40;101425.22;5109888;28;20024;-89
2023/05/01 03:08:16;;;;;;;7.50;4.30;;;;;;;12.96;62.82;101436.34;5109121;27;20077;-90
2023/05/01 03:10:42;;;;;;;7.90;4.10;;;;;;;12.91;62.85;101422.41;5106576;28;20131;-90
2023/05/01 03:13:08;;;;;;;8.52;3.97;;;;;;;12.83;63.34;101414.75;5110190;27;20042;-89
2023/05/01 03:15:33;;;;;;;8.18;4.32;;;;;;;12.77;62.90;101425.59;5107011;28;20416;-90
2023/05/01 03:17:58;;;;;;;5.57;4.00;;;;;;;12.66;63.57;101406.59;5107979;28;20116;-89
2023/05/01 03:20:23;;;;;;;7.32;4.18;;;;;;;12.69;64.30;101417.09;5107134;28;20038;-89
2023/05/01 03:22:49;;;;;;;5.93;3.95;;;;;;;12.72;63.61;101420.47;5111848;28;20023;-90
2023/05/01 03:25:14;;;;;;;5.40;3.70;;;;;;;12.83;63.50;101403.28;5110715;28;20051;-89
2023/05/01 03:27:39;;;;;;;7.47;4.50;;;;;;;12.94;63.06;101404.56;5107189;28;20533;-89
2023/05/01 03:30:05;;;;;;;7.75;3.95;;;;;;;13.00;61.96;101416.72;5098785;28;20024;-89
2023/05/01 03:32:31;;;;;;;8.65;4.38;;;;;;;13.05;62.39;101414.72;5110520;28;20474;-90
2023/05/01 03:34:56;;;;;;;8.60;4.45;;;;;;;12.99;62.35;101399.94;5109536;28;20043;-89
2023/05/01 03:37:22;;;;;;;7.78;4.22;;;;;;;12.90;63.13;101387.03;5105683;28;20056;-89
2023/05/01 03:39:47;;;;;;;7.22;4.32;;;;;;;12.95;63.43;101406.28;5101544;28;20024;-89
2023/05/01 03:42:12;;;;;;;6.07;4.25;;;;;;;12.85;63.79;101391.66;5108192;28;20030;-89
2023/05/01 03:44:37;;;;;;;8.50;4.60;;;;;;;12.87;64.47;101394.25;5123506;27;20031;-89
2023/05/01 03:47:03;;;;;;;7.20;4.75;;;;;;;12.78;63.56;101379.59;5108070;28;20318;-90
2023/05/01 03:49:28;;;;;;;11.02;4.85;;;;;;;12.82;63.61;101385.63;5107567;27;20118;-90
2023/05/01 03:51:54;;;;;;;8.20;4.53;;;;;;;12.94;63.02;101390.44;5105542;28;20023;-89
2023/05/01 03:54:19;;;;;;;6.30;4.35;;;;;;;12.95;62.07;101390.34;5107262;28;20032;-90
2023/05/01 03:56:45;;;;;;;8.60;4.18;;;;;;;12.94;61.95;101383.34;5108932;28;20033;-89
2023/05/01 03:59:11;;;;;;;9.48;4.45;;;;;;;13.02;62.28;101386.53;5117562;27;20495;-90
2023/05/01 04:01:37;;;;;;;7.55;4.82;;;;;;;13.05;61.98;101388.19;5109081;28;20043;-90
2023/05/01 04:04:02;;;;;;;6.15;4.07;;;;;;;13.01;63.09;101376.84;5104075;28;20023;-89
2023/05/01 04:06:28;;;;;;;8.05;4.35;;;;;;;13.07;62.58;101396.09;5103559;28;20035;-89
2023/05/01 04:08:53;;;;;;;5.90;4.47;;;;;;;13.06;62.80;101394.38;5102731;27;20031;-89
2023/05/01 04:11:18;;;;;;;5.60;3.90;;;;;;;12.96;62.13;101376.19;5109019;28;20497;-89
2023/05/01 04:13:44;;;;;;;6.35;4.13;;;;;;;13.06;62.29;101400.56;5105829;27;20027;-90
2023/05/01 04:16:09;;;;;;;6.50;4.50;;;;;;;12.95;62.44;101374.44;5104427;28;20023;-89
2023/05/01 04:18:34;;;;;;;6.63;4.10;;;;;;;12.96;63.16;101375.28;5101076;27;20097;-90
2023/05/01 04:21:00;;;;;;;7.47;4.68;;;;;;;12.94;63.45;101375.38;5105589;28;20058;-89
2023/05/01 04:23:25;;;;;;;6.65;4.43;;;;;;;12.91;63.52;101380.78;5105894;28;20043;-90
2023/05/01 04:25:50;;;;;;;6.00;4.28;;;;;;;12.96;62.82;101373.53;5103708;27;20111;-90
2023/05/01 04:28:16;;;;;;;6.05;4.70;;;;;;;12.93;62.87;101362.16;5108654;27;20088;-90
2023/05/01 04:30:41;;;;;;;8.63;4.90;;;;;;;13.08;62.59;101381.91;5100662;28;20034;-89
2023/05/01 04:33:10;;;;;;;6.60;4.25;;;;;;;12.98;63.03;101363.69;5108452;28;20027;-90
2023/05/01 04:35:37;;;;;;;7.68;5.00;;;;;;;12.98;62.80;101369.00;5105507;28;20027;-90
2023/05/01 04:38:03;;;;;;;8.60;4.80;;;;;;;12.95;63.15;101370.91;5120791;27;20048;-90
2023/05/01 04:40:28;;;;;;;7.50;4.38;;;;;;;12.99;62.45;101384.00;5104681;28;20080;-90
2023/05/01 04:42:53;;;;;;;7.03;4.82;;;;;;;12.93;62.67;101376.31;5106631;28;20030;-89
2023/05/01 04:45:18;;;;;;;7.72;4.78;;;;;;;12.97;62.91;101395.63;5106150;28;20505;-89
2023/05/01 04:47:44;;;;;;;7.65;4.63;;;;;;;12.91;62.27;101391.41;5101576;28;20035;-89
2023/05/01 04:50:09;;;;;;;8.45;4.93;;;;;;;12.94;62.91;101385.13;5101870;28;20454;-89
2023/05/01 04:52:34;;;;;;;7.93;5.63;;;;;;;12.92;62.70;101379.88;5107141;27;20273;-90
2023/05/01 04:55:00;;;;;;;6.22;4.53;;;;;;;13.00;62.56;101406.09;5108088;28;20023;-90
2023/05/01 04:57:25;;;;;;;8.80;5.30;;;;;;;12.89;62.72;101387.09;5106120;28;20497;-89
2023/05/01 04:59:51;;;;;;;11.65;5.07;;;;;;;12.97;62.86;101385.88;5105841;27;20423;-89
2023/05/01 05:02:16;;;;;;;9.52;5.28;;;;;;;13.04;63.57;101389.13;5111176;28;20461;-90
2023/05/01 05:04:41;;;;;;;8.60;5.38;;;;;;;12.99;63.40;101391.09;5124518;27;20024;-89
2023/05/01 05:07:08;;;;;;;10.32;4.80;;;;;;;13.03;63.01;101390.91;5106128;28;20032;-90
2023/05/01 05:09:33;;;;;;;6.72;4.88;;;;;;;12.99;64.30;101380.50;5105409;27;20473;-89
2023/05/01 05:11:58;;;;;;;9.52;5.45;;;;;;;12.95;64.98;101377.09;5108622;28;20051;-90
2023/05/01 05:14:23;;;;;;;5.13;4.63;;;;;;;12.93;65.56;101381.59;5098747;28;20030;-89
2023/05/01 05:16:50;;;;;;;9.13;5.45;;;;;;;12.88;65.89;101378.28;5108847;28;20020;-90
2023/05/01 05:19:15;;;;;;;9.48;5.63;;;;;;;12.90;65.93;101391.47;5106469;27;20046;-89
2023/05/01 05:21:41;;;;;;;8.07;5.38;;;;;;;12.80;65.76;101387.47;5109049;28;20032;-89
2023/05/01 05:24:06;;;;;;;6.05;5.20;;;;;;;12.89;65.61;101384.47;5104179;28;20042;-89
2023/05/01 05:26:31;;;;;;;6.95;5.15;;;;;;;12.94;64.71;101370.06;5104827;28;20192;-89
2023/05/01 05:28:57;;;;;;;8.02;5.10;;;;;;;12.97;64.91;101385.00;5103667;28;20023;-90
2023/05/01 05:31:22;;;;;;;8.15;5.57;;;;;;;13.00;64.26;101374.25;5106349;27;20030;-90
2023/05/01 05:33:48;;;;;;;10.13;5.57;;;;;;;12.99;64.34;101361.91;5105749;28;20027;-90
2023/05/01 05:36:13;;;;;;;6.15;4.68;;;;;;;13.08;63.72;101368.63;5102527;28;20028;-90
2023/05/01 05:38:39;;;;;;;10.07;5.25;;;;;;;13.24;62.76;101378.56;5102073;28;20112;-90
2023/05/01 05:41:04;;;;;;;10.07;6.30;;;;;;;13.18;64.14;101372.63;5101230;28;20020;-90
2023/05/01 05:43:31;;;;;;;13.25;6.20;;;;;;;13.12;64.57;101364.91;5096219;28;20028;-90
2023/05/01 05:45:57;;;;;;;8.05;6.00;;;;;;;13.34;64.58;101386.16;5103975;28;20063;-90
2023/05/01 05:48:23;;;;;;;8.13;6.40;;;;;;;13.42;62.94;101373.38;5107989;28;20043;-89
2023/05/01 05:50:51;;;;;;;9.77;6.18;;;;;;;13.51;63.08;101370.31;5106804;28;20134;-90
2023/05/01 05:53:16;;;;;;;7.88;6.32;;;;;;;13.71;61.55;101380.94;5106673;28;20015;-91
2023/05/01 05:55:42;;;;;;;12.57;6.68;;;;;;;13.74;61.75;101367.50;5103126;27;20031;-89
2023/05/01 05:58:07;;;;;;;10.45;6.25;;;;;;;13.99;60.67;101382.38;5103420;28;20023;-90
2023/05/01 06:00:33;;;;;;;10.00;6.72;;;;;;;13.88;60.15;101350.94;5100120;28;20028;-89
2023/05/01 06:02:58;;;;;;;8.50;6.30;;;;;;;14.06;59.22;101374.97;5102435;28;20034;-90
2023/05/01 06:05:23;;;;;;;10.80;6.70;;;;;;;13.97;59.44;101354.97;5105818;28;20031;-90
2023/05/01 06:07:48;;;;;;;8.50;5.93;;;;;;;14.01;59.52;101349.44;5097398;28;20030;-90
2023/05/01 06:10:14;;;;;;;10.25;6.38;;;;;;;14.23;59.76;101381.22;5106051;27;20032;-90
2023/05/01 06:12:40;;;;;;;8.88;6.45;;;;;;;14.25;59.77;101370.50;5105055;27;20536;-90
2023/05/01 06:15:06;;;;;;;11.98;6.45;;;;;;;14.25;59.79;101365.19;5095924;28;20023;-90
2023/05/01 06:17:31;;;;;;;11.30;6.68;;;;;;;14.31;60.38;101367.53;5107993;28;20020;-90
2023/05/01 06:19:57;;;;;;;10.00;6.72;;;;;;;14.35;60.09;101374.44;5103884;28;20031;-90
2023/05/01 06:22:22;;;;;;;9.55;6.45;;;;;;;14.43;59.15;101379.41;5105378;27;20034;-90
2023/05/01 06:24:47;;;;;;;11.25;7.05;;;;;;;14.35;58.74;101360.28;5109140;28;20590;-89
2023/05/01 06:27:13;;;;;;;9.27;6.18;;;;;;;14.29;57.62;101367.63;5107651;28;20024;-89
2023/05/01 06:29:38;;;;;;;9.02;6.70;;;;;;;14.35;58.87;101368.28;5105374;27;20059;-90
2023/05/01 06:32:04;;;;;;;8.13;6.47;;;;;;;14.38;58.98;101354.84;5109552;27;20201;-90
2023/05/01 06:34:29;;;;;;;10.70;6.25;;;;;;;14.56;58.23;101350.47;5107563;28;20043;-89
2023/05/01 06:36:55;;;;;;;7.72;6.35;;;;;;;14.62;56.73;101361.66;5105805;28;20020;-89
2023/05/01 06:39:20;;;;;;;7.93;5.85;;;;;;;14.68;56.69;101366.69;5109449;28;20390;-89
2023/05/01 06:41:46;;;;;;;10.27;6.80;;;;;;;14.86;57.42;101382.69;5099256;28;20028;-89
2023/05/01 06:44:12;;;;;;;11.23;6.95;;;;;;;15.00;56.96;101382.88;5100561;28;20031;-89
2023/05/01 06:46:37;;;;;;;8.10;6.50;;;;;;;15.05;56.11;101372.84;5107611;28;20474;-89
2023/05/01 06:49:02;;;;;;;10.25;6.85;;;;;;;15.06;56.63;101363.91;5110490;28;21073;-90
2023/05/01 06:51:29;;;;;;;9.65;7.07;;;;;;;15.24;56.56;101370.97;5109238;27;20024;-89
2023/05/01 06:53:54;;;;;;;10.40;7.35;;;;;;;15.25;55.26;101358.53;5113615;28;20506;-89
2023/05/01 06:56:20;;;;;;;11.35;6.90;;;;;;;15.39;55.83;101371.13;5109640;28;20066;-90
2023/05/01 06:58:45;;;;;;;10.75;6.55;;;;;;;15.48;56.61;101370.63;5106332;28;20110;-89
2023/05/01 07:01:11;;;;;;;11.43;7.13;;;;;;;15.43;54.53;101354.03;5107172;27;20031;-89
2023/05/01 07:03:36;;;;;;;8.88;7.00;;;;;;;15.45;56.27;101350.34;5122145;27;20047;-89
2023/05/01 07:06:01;;;;;;;10.50;7.07;;;;;;;15.55;55.24;101359.59;5111426;28;20031;-89
2023/05/01 07:08:27;;;;;;;10.20;7.28;;;;;;;15.55;55.75;101356.94;5105876;27;20107;-89
2023/05/01 07:10:52;;;;;;;9.50;7.07;;;;;;;15.45;54.29;101360.16;5102671;27;20224;-89
2023/05/01 07:13:18;;;;;;;9.07;6.97;;;;;;;15.65;54.40;101360.00;5121247;27;20016;-90
2023/05/01 07:15:44;;;;;;;11.98;7.38;;;;;;;15.85;54.96;101368.72;5112365;28;20027;-90
2023/05/01 07:18:11;;;;;;;8.90;7.03;;;;;;;16.04;55.08;101358.78;5112049;27;20433;-90
2023/05/01 07:20:36;;;;;;;10.50;6.90;;;;;;;16.15;54.38;101361.75;5105277;27;20027;-90
2023/05/01 07:23:02;;;;;;;9.15;7.18;;;;;;;16.18;55.40;101361.59;5107359;27;20111;-90
2023/05/01 07:25:28;;;;;;;9.60;6.63;;;;;;;16.29;53.11;101367.16;5109155;27;20461;-91
2023/05/01 07:27:54;;;;;;;11.63;6.72;;;;;;;16.12;51.63;101351.22;5106468;27;20031;-89
2023/05/01 07:30:19;;;;;;;10.95;6.43;;;;;;;16.02;52.73;101348.22;5111355;27;20489;-90
2023/05/01 07:32:45;;;;;;;8.82;6.65;;;;;;;16.26;52.50;101353.13;5110563;27;20024;-91
2023/05/01 07:35:10;;;;;;;10.52;7.40;;;;;;;16.38;51.75;101338.25;5107858;28;20079;-91
2023/05/01 07:37:35;;;;;;;11.88;6.78;;;;;;;16.64;52.46;101361.63;5110040;28;20490;-90
2023/05/01 07:40:01;;;;;;;8.70;6.63;;;;;;;16.74;50.89;101357.56;5118146;27;20039;-91
2023/05/01 07:42:26;;;;;;;11.57;7.50;;;;;;;16.71;51.22;101351.47;5110730;27;20085;-91
2023/05/01 07:44:52;;;;;;;11.43;7.10;;;;;;;17.06;51.12;101361.00;5101174;27;20072;-91
2023/05/01 07:47:18;;;;;;;9.75;7.00;;;;;;;17.26;50.88;101362.50;5111552;28;20027;-90
2023/05/01 07:49:43;;;;;;;9.93;6.57;;;;;;;17.59;50.40;101356.06;5110067;27;20020;-90
2023/05/01 07:52:09;;;;;;;9.38;6.55;;;;;;;17.68;50.41;101352.81;5110503;28;20032;-90
2023/05/01 07:54:35;;;;;;;12.15;6.97;;;;;;;17.80;49.28;101344.06;5104344;27;20498;-89
2023/05/01 07:57:00;;;;;;;10.63;6.75;;;;;;;18.19;48.71;101355.03;5112250;27;20027;-89
2023/05/01 07:59:26;;;;;;;7.65;6.13;;;;;;;18.39;49.12;101369.81;5116477;28;20033;-90
2023/05/01 08:01:52;;;;;;;9.00;7.25;;;;;;;18.55;48.60;101360.66;5111172;28;20578;-90
2023/05/01 08:04:17;;;;;;;11.10;7.30;;;;;;;18.63;47.83;101368.22;5108001;28;20031;-90
2023/05/01 08:06:43;;;;;;;10.18;6.97;;;;;;;18.78;48.15;101364.53;5106703;28;20387;-91
2023/05/01 08:09:08;;;;;;;10.35;7.43;;;;;;;18.90;47.10;101360.22;5111523;28;20130;-89
2023/05/01 08:11:34;;;;;;;8.43;7.18;;;;;;;19.10;46.76;101358.84;5102942;28;20113;-91
2023/05/01 08:13:59;;;;;;;12.70;7.25;;;;;;;19.25;45.13;101352.44;5109739;28;20046;-92
2023/05/01 08:16:25;;;;;;;10.75;8.15;;;;;;;19.90;45.75;101359.56;5108347;27;20083;-91
2023/05/01 08:18:50;;;;;;;9.60;6.93;;;;;;;20.42;44.49;101360.31;5107794;28;20028;-91
2023/05/01 08:21:16;;;;;;;16.67;7.53;;;;;;;20.59;42.29;101360.84;5109097;28;21602;-91
2023/05/01 08:23:41;;;;;;;12.27;7.32;;;;;;;20.53;43.80;101349.69;5107115;28;20115;-91
2023/05/01 08:26:06;;;;;;;8.20;7.40;;;;;;;21.07;42.34;101350.06;5107681;27;20019;-91
2023/05/01 08:28:34;;;;;;;9.38;7.43;;;;;;;21.53;40.82;101351.91;5110626;28;20047;-92
2023/05/01 08:30:59;;;;;;;10.93;7.65;;;;;;;21.39;41.12;101349.44;5102016;27;20092;-92
2023/05/01 08:33:24;;;;;;;9.65;7.20;;;;;;;21.54;40.67;101347.41;5104738;28;20024;-93
2023/05/01 08:35:51;;;;;;;11.68;6.57;;;;;;;21.93;40.23;101339.84;5108703;27;20118;-93
2023/05/01 08:38:17;;;;;;;10.52;7.00;;;;;;;22.78;40.01;101343.63;5105714;28;20063;-92
2023/05/01 08:40:49;;;;;;;8.63;7.65;;;;;;;23.33;38.73;101355.16;5105066;27;20110;-93
2023/05/01 08:43:16;;;;;;;13.60;7.57;;;;;;;23.76;37.66;101340.66;5105154;28;20031;-92
2023/05/01 08:45:41;;;;;;;12.13;7.32;;;;;;;23.97;36.62;101332.53;5105086;28;20024;-93
2023/05/01 08:48:08;;;;;;;15.00;8.15;;;;;;;24.00;35.99;101350.28;5102617;28;20379;-93
2023/05/01 08:50:37;;;;;;;11.20;7.40;;;;;;;23.95;35.38;101345.28;5123456;27;20393;-92
2023/05/01 08:53:04;;;;;;;12.10;7.38;;;;;;;23.65;37.18;101354.25;5107343;28;20030;-92
2023/05/01 08:55:31;;;;;;;11.48;7.60;;;;;;;23.42;37.01;101351.69;5106715;27;20102;-92
2023/05/01 08:57:58;;;;;;;12.13;7.85;;;;;;;23.02;36.93;101347.97;5101984;27;20023;-92
2023/05/01 09:00:24;;;;;;;12.10;7.95;;;;;;;22.39;38.68;101345.94;5106781;28;20091;-92
2023/05/01 09:02:50;;;;;;;11.35;8.38;;;;;;;22.74;38.54;101344.00;5106059;27;20615;-92
2023/05/01 09:05:17;;;;;;;11.95;7.50;;;;;;;23.40;36.72;101353.63;5109292;27;20100;-92
2023/05/01 09:07:45;;;;;;;8.32;6.28;;;;;;;23.57;36.32;101336.00;5104269;28;20027;-92
2023/05/01 09:10:12;;;;;;;11.73;7.60;;;;;;;23.46;37.33;101344.19;5107455;27;20118;-92
2023/05/01 09:12:38;;;;;;;7.97;6.22;;;;;;;23.56;37.32;101342.38;5103531;28;20080;-92
2023/05/01 09:15:06;;;;;;;9.65;7.25;;;;;;;23.52;35.93;101357.13;5106995;27;20051;-92
2023/05/01 09:17:32;;;;;;;8.27;6.90;;;;;;;23.22;37.41;101346.28;5099956;27;20027;-91
2023/05/01 09:19:58;;;;;;;9.45;7.43;;;;;;;23.03;37.57;101350.53;5106356;27;20043;-92
2023/05/01 09:22:23;;;;;;;9.68;6.80;;;;;;;22.58;38.32;101358.78;5105584;28;20056;-92
2023/05/01 09:24:48;;;;;;;7.72;6.75;;;;;;;22.42;38.29;101344.81;5106366;28;20433;-91
2023/05/01 09:27:14;;;;;;;7.72;6.60;;;;;;;22.50;37.52;101344.22;5107114;28;20040;-92
2023/05/01 09:29:45;;;;;;;10.50;6.65;;;;;;;22.51;38.47;101362.09;5107960;28;20035;-91
2023/05/01 09:32:22;;;;;;;7.35;6.35;;;;;;;22.47;38.37;101356.09;5100419;28;20407;-91
2023/05/01 09:34:48;;;;;;;13.38;7.28;;;;;;;22.36;37.77;101348.88;5108229;28;20104;-91
2023/05/01 09:37:28;;;;;;;9.65;6.60;;;;;;;22.57;39.61;101351.69;5102892;28;20054;-91
2023/05/01 09:40:11;;;;;;;9.23;6.07;;;;;;;23.28;37.82;101354.72;5122158;27;20182;-91
2023/05/01 09:42:38;;;;;;;8.50;6.55;;;;;;;23.16;36.63;101347.66;5101430;28;20028;-91
2023/05/01 09:45:12;;;;;;;11.15;7.45;;;;;;;23.08;37.11;101356.41;5089121;28;20130;-91
2023/05/01 09:47:37;;;;;;;8.30;7.18;;;;;;;23.32;37.52;101345.38;5104349;28;20027;-92
2023/05/01 09:50:03;;;;;;;9.05;7.30;;;;;;;23.60;37.47;101345.69;5104990;28;20080;-92
2023/05/01 09:52:29;;;;;;;11.00;7.22;;;;;;;24.11;36.72;101352.91;5108155;28;20016;-93
2023/05/01 09:55:14;;;;;;;9.25;7.55;;;;;;;24.68;37.19;101354.06;5110314;28;20023;-92
2023/05/01 09:57:41;;;;;;;12.20;7.53;;;;;;;24.55;35.20;101340.81;5106652;28;20405;-92
2023/05/01 10:00:11;;;;;;;10.88;7.85;;;;;;;24.99;35.25;101353.91;5106418;28;20035;-93
2023/05/01 10:02:37;;;;;;;10.70;6.95;;;;;;;25.32;36.00;101361.63;5105728;28;20074;-93
2023/05/01 10:05:03;;;;;;;8.68;7.03;;;;;;;25.87;34.05;101358.22;5108301;28;20023;-93
2023/05/01 10:07:29;;;;;;;10.70;7.78;;;;;;;25.50;32.87;101361.72;5098112;28;20051;-93
2023/05/01 10:09:55;;;;;;;12.82;8.27;;;;;;;24.99;33.67;101356.63;5102469;28;20076;-92
2023/05/01 10:12:24;;;;;;;10.50;7.15;;;;;;;25.05;35.80;101356.94;5109400;28;20118;-94
2023/05/01 10:14:54;;;;;;;11.38;7.00;;;;;;;25.57;34.94;101359.31;5114179;28;20653;-95
2023/05/01 10:17:20;;;;;;;9.27;7.53;;;;;;;25.42;34.61;101353.50;5114158;28;20768;-91
2023/05/01 10:19:46;;;;;;;8.73;6.93;;;;;;;25.46;33.90;101365.75;5109895;28;20061;-92
2023/05/01 10:22:12;;;;;;;8.45;6.68;;;;;;;25.45;34.43;101356.75;5109322;28;20058;-92
2023/05/01 10:24:41;;;;;;;9.40;6.88;;;;;;;25.53;34.57;101366.00;5110102;28;20020;-92
2023/05/01 10:27:07;;;;;;;9.85;6.50;;;;;;;25.48;34.52;101347.50;5104790;28;20035;-91
2023/05/01 10:29:38;;;;;;;12.77;6.75;;;;;;;25.26;33.79;101350.53;5101752;28;20062;-91
2023/05/01 10:32:08;;;;;;;8.05;6.63;;;;;;;25.05;33.92;101356.06;5105036;28;20016;-92
2023/05/01 10:34:39;;;;;;;8.55;6.95;;;;;;;25.03;34.39;101348.06;5098453;28;20031;-93
2023/05/01 10:37:12;;;;;;;10.75;7.18;;;;;;;25.13;34.86;101356.22;5105472;28;20051;-92
2023/05/01 10:39:38;;;;;;;7.63;6.43;;;;;;;25.16;35.14;101337.84;5096968;28;20281;-91
2023/05/01 10:42:13;;;;;;;8.60;7.10;;;;;;;25.19;34.55;101358.38;5107787;28;20486;-91
2023/05/01 10:44:40;;;;;;;7.60;6.80;;;;;;;25.41;34.87;101347.25;5111009;28;20403;-91
2023/05/01 10:47:24;;;;;;;8.18;7.10;;;;;;;25.61;34.00;101352.59;5105519;28;20369;-90
2023/05/01 10:50:05;;;;;;;9.18;7.40;;;;;;;25.48;34.33;101361.03;5105004;28;20484;-91
2023/05/01 10:53:13;;;;;;;9.75;7.22;;;;;;;25.61;34.03;101358.00;5120088;27;20502;-92
2023/05/01 10:55:41;;;;;;;8.82;7.25;;;;;;;25.64;33.33;101361.25;5103719;28;20034;-90
2023/05/01 10:58:07;;;;;;;10.63;7.63;;;;;;;25.34;33.55;101350.66;5105237;28;20028;-90
2023/05/01 11:00:33;;;;;;;9.38;6.63;;;;;;;25.36;33.54;101356.75;5104972;28;20031;-90
2023/05/01 11:03:20;;;;;;;11.77;7.20;;;;;;;25.32;34.98;101363.47;5103851;28;20381;-90
2023/05/01 11:06:03;;;;;;;10.27;7.22;;;;;;;24.81;35.14;101365.47;5102428;28;20386;-91
2023/05/01 11:08:37;;;;;;;12.40;8.07;;;;;;;24.38;35.59;101353.13;5103608;28;20055;-91
2023/05/01 11:11:28;;;;;;;8.82;6.75;;;;;;;24.70;35.88;101362.88;5109346;28;20027;-91
2023/05/01 11:14:05;;;;;;;9.80;7.80;;;;;;;24.51;35.19;101360.16;5084860;28;20044;-91
2023/05/01 11:16:36;;;;;;;9.90;8.10;;;;;;;24.16;35.21;101365.00;5108612;27;20039;-91
2023/05/01 11:19:21;;;;;;;9.55;8.38;;;;;;;24.27;35.54;101357.78;5103642;28;20032;-92
2023/05/01 11:21:47;;;;;;;11.80;9.02;;;;;;;24.55;35.49;101375.09;5104517;28;21353;-92
2023/05/01 11:24:12;;;;;;;9.63;7.78;;;;;;;24.60;35.01;101364.72;5106689;28;20418;-92
2023/05/01 11:26:41;;;;;;;8.38;7.45;;;;;;;24.67;34.68;101357.78;5103009;28;20028;-92